createdAt,value
2023-05-21T00:01:03.528Z,19.30
2023-05-21T00:03:34.506Z,16.73
2023-05-21T00:06:06.816Z,18.93
2023-05-21T00:08:39.096Z,17.08
2023-05-21T00:11:07.813Z,16.58
2023-05-21T00:13:36.856Z,16.67
2023-05-21T00:16:07.266Z,21.98
2023-05-21T00:18:36.893Z,18.65
2023-05-21T00:21:10.080Z,17.02
2023-05-21T00:23:43.282Z,16.30
2023-05-21T00:26:17.145Z,18.50
2023-05-21T00:28:46.141Z,16.90
2023-05-21T00:31:19.748Z,15.30
2023-05-21T00:33:51.214Z,16.52
2023-05-21T00:36:24.541Z,16.20
2023-05-21T00:38:55.134Z,19.17
2023-05-21T00:41:26.032Z,18.95
2023-05-21T00:43:55.239Z,15.87
2023-05-21T00:46:24.432Z,17.63
2023-05-21T00:48:54.051Z,15.23
2023-05-21T00:51:23.309Z,15.95
2023-05-21T00:54:05.623Z,15.63
2023-05-21T00:56:34.295Z,16.45
2023-05-21T00:59:06.952Z,17.35
2023-05-21T01:01:37.321Z,16.38
2023-05-21T01:04:06.474Z,15.93
2023-05-21T01:06:36.603Z,17.75
2023-05-21T01:09:07.638Z,16.17
2023-05-21T01:11:44.284Z,16.35
2023-05-21T01:14:15.264Z,16.42
2023-05-21T01:16:46.510Z,19.25
2023-05-21T01:19:19.619Z,15.32
2023-05-21T01:21:51.837Z,15.35
2023-05-21T01:24:24.987Z,17.95
2023-05-21T01:26:53.486Z,17.15
2023-05-21T01:29:21.925Z,19.10
2023-05-21T01:32:00.866Z,16.75
2023-05-21T01:34:35.044Z,15.80
2023-05-21T01:37:13.695Z,17.17
2023-05-21T01:39:48.171Z,19.83
2023-05-21T01:42:21.296Z,18.95
2023-05-21T01:44:56.554Z,18.42
2023-05-21T01:47:28.579Z,16.90
2023-05-21T01:49:57.935Z,16.63
2023-05-21T01:52:29.914Z,15.70
2023-05-21T01:55:00.466Z,17.30
2023-05-21T01:57:30.031Z,19.25
2023-05-21T02:00:02.151Z,23.65
2023-05-21T02:02:31.458Z,15.77
2023-05-21T02:05:00.186Z,15.77
2023-05-21T02:07:29.387Z,17.15
2023-05-21T02:10:01.088Z,16.00
2023-05-21T02:12:29.737Z,17.75
2023-05-21T02:14:58.695Z,16.98
2023-05-21T02:17:31.268Z,16.05
2023-05-21T02:20:07.265Z,15.32
2023-05-21T02:22:39.862Z,16.45
2023-05-21T02:25:11.241Z,16.27
2023-05-21T02:27:48.192Z,15.35
2023-05-21T02:30:17.420Z,19.38
2023-05-21T02:32:49.316Z,16.58
2023-05-21T02:35:17.833Z,16.13
2023-05-21T02:37:46.346Z,15.07
2023-05-21T02:40:16.638Z,17.00
2023-05-21T02:42:50.054Z,19.55
2023-05-21T02:45:21.350Z,15.07
2023-05-21T02:47:51.406Z,19.20
2023-05-21T02:50:21.191Z,15.50
2023-05-21T02:52:51.134Z,15.75
2023-05-21T02:55:21.499Z,16.33
2023-05-21T02:57:49.809Z,14.52
2023-05-21T03:00:19.253Z,14.93
2023-05-21T03:02:49.250Z,20.25
2023-05-21T03:05:18.122Z,14.40
2023-05-21T03:07:46.697Z,17.92
2023-05-21T03:10:23.393Z,12.75
2023-05-21T03:12:52.623Z,18.70
2023-05-21T03:15:25.077Z,13.63
2023-05-21T03:17:54.556Z,16.00
2023-05-21T03:20:24.582Z,17.98
2023-05-21T03:22:55.342Z,17.80
2023-05-21T03:25:25.819Z,15.18
2023-05-21T03:27:54.236Z,14.05
2023-05-21T03:30:22.901Z,13.80
2023-05-21T03:32:51.801Z,13.73
2023-05-21T03:35:27.431Z,17.23
2023-05-21T03:37:57.887Z,13.95
2023-05-21T03:40:30.584Z,17.25
2023-05-21T03:42:59.580Z,14.55
2023-05-21T03:45:29.033Z,15.73
2023-05-21T03:48:02.378Z,16.15
2023-05-21T03:50:33.018Z,14.77
2023-05-21T03:53:04.768Z,17.40
2023-05-21T03:58:05.339Z,13.43
2023-05-21T04:00:37.846Z,12.95
2023-05-21T04:03:08.786Z,15.77
2023-05-21T04:05:37.996Z,13.55
2023-05-21T04:08:10.890Z,13.50
2023-05-21T04:10:44.158Z,12.93
2023-05-21T04:13:25.098Z,13.52
2023-05-21T04:15:54.757Z,13.05
2023-05-21T04:18:30.255Z,13.00
2023-05-21T04:21:02.087Z,14.23
2023-05-21T04:26:01.919Z,12.23
2023-05-21T04:28:32.444Z,14.77
2023-05-21T04:31:00.914Z,14.88
2023-05-21T04:33:30.719Z,16.02
2023-05-21T04:36:00.679Z,13.45
2023-05-21T04:38:38.587Z,13.93
2023-05-21T04:41:11.416Z,14.68
2023-05-21T04:43:44.072Z,13.68
2023-05-21T04:46:13.162Z,15.13
2023-05-21T04:48:42.316Z,14.02
2023-05-21T04:51:11.397Z,13.60
2023-05-21T04:53:42.930Z,13.10
2023-05-21T04:56:13.709Z,11.80
2023-05-21T04:58:44.637Z,14.32
2023-05-21T05:01:13.760Z,14.10
2023-05-21T05:03:42.202Z,12.77
2023-05-21T05:06:11.207Z,12.90
2023-05-21T05:08:39.546Z,12.63
2023-05-21T05:11:08.157Z,14.07
2023-05-21T05:13:42.056Z,12.13
2023-05-21T05:16:12.299Z,12.82
2023-05-21T05:18:41.727Z,15.23
2023-05-21T05:21:10.860Z,11.50
2023-05-21T05:23:39.398Z,16.42
2023-05-21T05:26:12.184Z,14.77
2023-05-21T05:28:46.613Z,14.25
2023-05-21T05:31:15.731Z,13.48
2023-05-21T05:33:48.430Z,12.45
2023-05-21T05:36:17.652Z,12.73
2023-05-21T05:38:48.586Z,14.02
2023-05-21T05:41:19.339Z,11.57
2023-05-21T05:43:49.021Z,13.95
2023-05-21T05:46:17.851Z,13.73
2023-05-21T05:48:47.271Z,11.50
2023-05-21T05:51:18.286Z,11.93
2023-05-21T05:53:46.962Z,15.52
2023-05-21T05:56:17.331Z,14.40
2023-05-21T05:58:45.720Z,13.85
2023-05-21T06:01:16.765Z,13.43
2023-05-21T06:03:47.502Z,15.45
2023-05-21T06:06:17.970Z,17.33
2023-05-21T06:08:46.578Z,14.13
2023-05-21T06:11:20.723Z,14.95
2023-05-21T06:13:49.321Z,14.65
2023-05-21T06:16:19.675Z,12.48
2023-05-21T06:18:49.719Z,15.38
2023-05-21T06:21:19.360Z,11.60
2023-05-21T06:23:48.212Z,14.25
2023-05-21T06:26:16.709Z,15.35
2023-05-21T06:28:47.240Z,16.42
2023-05-21T06:31:19.102Z,12.02
2023-05-21T06:33:49.819Z,15.55
2023-05-21T06:36:18.571Z,14.88
2023-05-21T06:38:49.944Z,16.60
2023-05-21T06:41:21.466Z,14.40
2023-05-21T06:43:50.300Z,13.55
2023-05-21T06:46:20.034Z,13.48
2023-05-21T06:48:48.571Z,11.93
2023-05-21T06:51:16.932Z,14.77
2023-05-21T06:53:45.921Z,12.93
2023-05-21T06:56:14.571Z,12.65
2023-05-21T06:58:43.031Z,13.15
2023-05-21T07:01:14.182Z,11.15
2023-05-21T07:03:49.237Z,14.57
2023-05-21T07:06:21.753Z,18.75
2023-05-21T07:08:51.942Z,11.15
2023-05-21T07:11:23.162Z,11.15
2023-05-21T07:13:57.289Z,10.55
2023-05-21T07:16:31.555Z,11.95
2023-05-21T07:19:02.631Z,11.63
2023-05-21T07:21:31.541Z,13.18
2023-05-21T07:24:00.293Z,11.35
2023-05-21T07:26:29.319Z,13.32
2023-05-21T07:28:57.906Z,14.90
2023-05-21T07:31:27.964Z,12.95
2023-05-21T07:33:56.353Z,12.40
2023-05-21T07:36:27.793Z,11.85
2023-05-21T07:38:58.436Z,13.23
2023-05-21T07:41:31.855Z,14.90
2023-05-21T07:44:02.019Z,12.75
2023-05-21T07:46:32.269Z,11.18
2023-05-21T07:49:00.701Z,12.07
2023-05-21T07:51:33.943Z,11.65
2023-05-21T07:54:03.280Z,11.68
2023-05-21T07:56:32.457Z,13.13
2023-05-21T07:59:01.800Z,11.45
2023-05-21T08:01:30.893Z,12.32
2023-05-21T08:04:02.092Z,13.52
2023-05-21T08:06:34.679Z,11.57
2023-05-21T08:09:03.412Z,11.68
2023-05-21T08:11:31.953Z,15.02
2023-05-21T08:14:00.566Z,12.82
2023-05-21T08:16:29.313Z,13.25
2023-05-21T08:18:58.934Z,10.48
2023-05-21T08:21:28.023Z,12.32
2023-05-21T08:24:01.285Z,12.85
2023-05-21T08:26:32.162Z,15.95
2023-05-21T08:29:04.518Z,11.38
2023-05-21T08:31:33.402Z,11.50
2023-05-21T08:34:01.814Z,12.77
2023-05-21T08:36:31.611Z,13.48
2023-05-21T08:39:06.775Z,12.13
2023-05-21T08:41:37.187Z,14.90
2023-05-21T08:44:15.111Z,11.65
2023-05-21T08:46:47.700Z,10.73
2023-05-21T08:49:18.808Z,9.80
2023-05-21T08:51:48.409Z,11.77
2023-05-21T08:54:21.444Z,10.73
2023-05-21T08:56:52.784Z,14.93
2023-05-21T08:59:24.005Z,9.98
2023-05-21T09:01:54.156Z,10.45
2023-05-21T09:04:23.189Z,13.50
2023-05-21T09:06:55.604Z,10.18
2023-05-21T09:09:34.958Z,14.15
2023-05-21T09:12:05.602Z,13.95
2023-05-21T09:14:40.310Z,10.23
2023-05-21T09:17:09.338Z,12.93
2023-05-21T09:19:43.132Z,12.95
2023-05-21T09:22:11.800Z,11.88
2023-05-21T09:24:45.203Z,11.77
2023-05-21T09:27:13.757Z,12.82
2023-05-21T09:29:43.845Z,11.32
2023-05-21T09:32:15.541Z,13.90
2023-05-21T09:34:49.931Z,15.98
2023-05-21T09:40:00.248Z,16.33
2023-05-21T09:42:31.426Z,14.52
2023-05-21T09:45:00.716Z,11.15
2023-05-21T09:47:29.125Z,10.57
2023-05-21T09:50:05.384Z,12.05
2023-05-21T09:52:42.155Z,9.85
2023-05-21T09:55:16.729Z,14.90
2023-05-21T09:57:47.626Z,13.20
2023-05-21T10:00:22.871Z,15.70
2023-05-21T10:02:55.438Z,14.20
2023-05-21T10:05:27.770Z,12.38
2023-05-21T10:08:01.919Z,14.70
2023-05-21T10:10:34.168Z,13.13
2023-05-21T10:13:06.905Z,12.13
2023-05-21T10:15:40.464Z,13.00
2023-05-21T10:18:12.142Z,10.35
2023-05-21T10:20:42.722Z,12.88
2023-05-21T10:23:13.924Z,10.02
2023-05-21T10:25:44.686Z,10.45
2023-05-21T10:28:17.744Z,9.35
2023-05-21T10:30:47.572Z,15.68
2023-05-21T10:33:18.541Z,9.65
2023-05-21T10:35:53.145Z,13.02
2023-05-21T10:38:39.869Z,14.45
2023-05-21T10:41:22.302Z,11.40
2023-05-21T10:44:07.271Z,11.38
2023-05-21T10:47:03.439Z,10.63
2023-05-21T10:49:56.027Z,13.32
2023-05-21T10:52:38.023Z,9.88
2023-05-21T10:55:19.094Z,11.38
2023-05-21T10:58:13.853Z,11.30
2023-05-21T11:00:44.745Z,10.55
2023-05-21T11:03:17.575Z,14.10
2023-05-21T11:05:55.028Z,10.82
2023-05-21T11:08:24.999Z,10.63
2023-05-21T11:10:56.186Z,9.65
2023-05-21T11:13:32.798Z,12.85
2023-05-21T11:16:16.131Z,11.23
2023-05-21T11:19:04.431Z,13.10
2023-05-21T11:21:35.796Z,11.23
2023-05-21T11:24:11.304Z,15.45
2023-05-21T11:27:08.627Z,10.25
2023-05-21T11:29:50.185Z,10.63
2023-05-21T11:32:23.246Z,10.80
2023-05-21T11:34:52.353Z,11.25
2023-05-21T11:37:37.898Z,10.38
2023-05-21T11:40:26.362Z,10.93
2023-05-21T11:42:59.323Z,12.68
2023-05-21T11:45:34.052Z,11.80
2023-05-21T11:48:02.658Z,11.45
2023-05-21T11:50:34.102Z,12.75
2023-05-21T11:53:02.494Z,13.05
2023-05-21T11:55:36.492Z,17.50
2023-05-21T11:58:06.824Z,13.50
2023-05-21T12:00:40.576Z,10.65
2023-05-21T12:03:16.595Z,13.13
2023-05-21T12:05:53.706Z,10.60
2023-05-21T12:08:26.155Z,13.52
2023-05-21T12:11:00.702Z,12.07
2023-05-21T12:13:29.754Z,11.60
2023-05-21T12:16:00.693Z,11.45
2023-05-21T12:18:29.542Z,13.43
2023-05-21T12:21:00.181Z,10.48
2023-05-21T12:23:32.791Z,12.70
2023-05-21T12:26:02.569Z,12.57
2023-05-21T12:28:32.171Z,13.55
2023-05-21T12:31:05.719Z,12.82
2023-05-21T12:33:36.989Z,15.10
2023-05-21T12:36:06.360Z,14.57
2023-05-21T12:38:35.009Z,14.57
2023-05-21T12:41:06.364Z,11.77
2023-05-21T12:43:37.466Z,12.15
2023-05-21T12:46:07.590Z,12.10
2023-05-21T12:48:36.169Z,9.32
2023-05-21T12:51:06.789Z,10.38
2023-05-21T12:53:39.335Z,10.75
2023-05-21T12:56:12.245Z,14.52
2023-05-21T12:58:43.587Z,12.57
2023-05-21T13:01:18.831Z,11.65
2023-05-21T13:03:47.855Z,10.40
2023-05-21T13:06:20.569Z,12.38
2023-05-21T13:08:50.205Z,10.15
2023-05-21T13:11:21.104Z,10.15
2023-05-21T13:13:50.150Z,12.40
2023-05-21T13:16:22.198Z,13.20
2023-05-21T13:18:53.898Z,10.93
2023-05-21T13:21:22.138Z,12.98
2023-05-21T13:23:52.855Z,11.40
2023-05-21T13:26:21.412Z,10.35
2023-05-21T13:28:51.096Z,11.80
2023-05-21T13:31:20.988Z,10.45
2023-05-21T13:33:49.422Z,10.85
2023-05-21T13:36:18.008Z,10.77
2023-05-21T13:38:49.412Z,12.70
2023-05-21T13:41:18.064Z,11.38
2023-05-21T13:43:46.556Z,11.10
2023-05-21T13:46:17.810Z,13.75
2023-05-21T13:51:37.573Z,10.77
2023-05-21T13:54:08.473Z,16.42
2023-05-21T13:56:37.141Z,11.40
2023-05-21T13:59:05.848Z,9.80
2023-05-21T14:01:34.577Z,11.43
2023-05-21T14:04:06.797Z,11.15
2023-05-21T14:06:37.820Z,12.63
2023-05-21T14:09:06.233Z,12.70
2023-05-21T14:11:35.918Z,10.57
2023-05-21T14:14:06.112Z,9.55
2023-05-21T14:16:35.081Z,14.73
2023-05-21T14:19:05.333Z,11.30
2023-05-21T14:21:34.182Z,15.75
2023-05-21T14:24:02.524Z,11.35
2023-05-21T14:26:31.027Z,11.07
2023-05-21T14:29:01.016Z,12.35
2023-05-21T14:31:29.453Z,13.07
2023-05-21T14:33:57.905Z,12.40
2023-05-21T14:36:28.197Z,10.73
2023-05-21T14:38:57.271Z,11.82
2023-05-21T14:41:26.446Z,11.50
2023-05-21T14:43:55.082Z,11.43
2023-05-21T14:46:24.500Z,13.73
2023-05-21T14:48:52.956Z,14.68
2023-05-21T14:51:21.716Z,14.60
2023-05-21T14:53:52.139Z,14.05
2023-05-21T14:56:22.171Z,9.65
2023-05-21T14:58:50.976Z,11.65
2023-05-21T15:01:19.715Z,12.80
2023-05-21T15:03:48.789Z,11.82
2023-05-21T15:06:18.734Z,10.73
2023-05-21T15:08:47.722Z,10.20
2023-05-21T15:11:17.969Z,11.63
2023-05-21T15:13:46.925Z,12.23
2023-05-21T15:16:17.194Z,10.90
2023-05-21T15:18:46.686Z,14.70
2023-05-21T15:21:16.003Z,14.90
2023-05-21T15:23:44.287Z,11.25
2023-05-21T15:26:12.939Z,13.23
2023-05-21T15:28:43.508Z,13.68
2023-05-21T15:31:12.622Z,12.57
2023-05-21T15:33:41.212Z,11.60
2023-05-21T15:36:10.380Z,11.60
2023-05-21T15:38:38.618Z,10.60
2023-05-21T15:41:07.719Z,10.88
2023-05-21T15:43:36.867Z,11.88
2023-05-21T15:46:07.213Z,12.90
2023-05-21T15:48:36.108Z,9.85
2023-05-21T15:51:04.800Z,11.57
2023-05-21T15:53:33.427Z,9.52
2023-05-21T15:56:03.278Z,11.40
2023-05-21T15:58:32.650Z,12.25
2023-05-21T16:01:01.465Z,10.32
2023-05-21T16:03:31.647Z,15.27
2023-05-21T16:06:00.366Z,11.82
2023-05-21T16:08:28.665Z,15.13
2023-05-21T16:10:58.803Z,14.50
2023-05-21T16:13:27.883Z,12.73
2023-05-21T16:15:56.138Z,12.48
2023-05-21T16:18:24.630Z,11.57
2023-05-21T16:20:56.816Z,11.43
2023-05-21T16:23:25.854Z,12.35
2023-05-21T16:25:54.476Z,12.48
2023-05-21T16:28:24.626Z,10.93
2023-05-21T16:30:53.316Z,11.98
2023-05-21T16:33:21.805Z,9.82
2023-05-21T16:35:51.292Z,13.90
2023-05-21T16:38:21.395Z,12.90
2023-05-21T16:40:51.426Z,12.25
2023-05-21T16:43:20.667Z,11.35
2023-05-21T16:45:49.669Z,12.35
2023-05-21T16:48:18.537Z,34.78
2023-05-21T16:50:47.485Z,19.85
2023-05-21T16:53:16.383Z,20.45
2023-05-21T16:55:46.089Z,13.18
2023-05-21T16:58:14.498Z,12.32
2023-05-21T17:00:43.429Z,11.00
2023-05-21T17:03:12.067Z,10.77
2023-05-21T17:05:40.836Z,14.40
2023-05-21T17:08:10.524Z,14.05
2023-05-21T17:10:39.123Z,10.55
2023-05-21T17:13:21.298Z,11.27
2023-05-21T17:15:53.131Z,13.38
2023-05-21T17:18:21.712Z,16.42
2023-05-21T17:20:50.137Z,13.73
2023-05-21T17:23:19.010Z,17.67
2023-05-21T17:25:47.374Z,20.60
2023-05-21T17:28:19.359Z,13.40
2023-05-21T17:30:49.651Z,14.88
2023-05-21T17:33:18.339Z,12.82
2023-05-21T17:35:46.881Z,12.98
2023-05-21T17:38:15.339Z,13.20
2023-05-21T17:40:43.561Z,15.60
2023-05-21T17:43:12.068Z,17.42
2023-05-21T17:45:42.224Z,22.15
2023-05-21T17:48:15.098Z,19.55
2023-05-21T17:50:46.992Z,17.95
2023-05-21T17:53:16.236Z,22.60
2023-05-21T17:55:44.490Z,28.02
2023-05-21T17:58:13.352Z,28.63
2023-05-21T18:00:43.010Z,25.92
2023-05-21T18:03:11.597Z,20.90
2023-05-21T18:05:41.594Z,17.38
2023-05-21T18:08:10.388Z,23.00
2023-05-21T18:10:38.864Z,23.90
2023-05-21T18:13:08.038Z,17.23
2023-05-21T18:15:36.550Z,13.73
2023-05-21T18:18:07.846Z,17.75
2023-05-21T18:20:37.576Z,16.55
2023-05-21T18:23:06.336Z,16.30
2023-05-21T18:25:35.656Z,39.20
2023-05-21T18:28:06.482Z,38.95
2023-05-21T18:30:35.777Z,34.40
2023-05-21T18:33:04.985Z,25.42
2023-05-21T18:35:36.293Z,20.92
2023-05-21T18:38:10.262Z,21.15
2023-05-21T18:40:39.242Z,21.17
2023-05-21T18:43:10.745Z,22.73
2023-05-21T18:45:39.944Z,19.73
2023-05-21T18:48:08.635Z,16.48
2023-05-21T18:50:39.761Z,20.10
2023-05-21T18:53:08.543Z,19.83
2023-05-21T18:55:37.293Z,18.63
2023-05-21T18:58:07.296Z,17.50
2023-05-21T19:00:38.410Z,19.85
2023-05-21T19:03:07.712Z,18.10
2023-05-21T19:05:38.291Z,20.15
2023-05-21T19:08:07.691Z,22.80
2023-05-21T19:10:39.480Z,24.52
2023-05-21T19:13:08.686Z,18.92
2023-05-21T19:15:39.065Z,22.50
2023-05-21T19:18:08.528Z,16.33
2023-05-21T19:20:39.943Z,16.85
2023-05-21T19:23:10.348Z,17.83
2023-05-21T19:25:40.101Z,17.23
2023-05-21T19:28:09.800Z,21.80
2023-05-21T19:30:38.477Z,17.15
2023-05-21T19:33:07.507Z,23.30
2023-05-21T19:35:37.953Z,20.73
2023-05-21T19:38:08.565Z,43.75
2023-05-21T19:40:37.804Z,35.65
2023-05-21T19:43:07.630Z,36.80
2023-05-21T19:45:36.478Z,35.17
2023-05-21T19:48:06.070Z,38.25
2023-05-21T19:50:39.780Z,27.33
2023-05-21T19:53:12.127Z,22.45
2023-05-21T19:55:41.492Z,23.58
2023-05-21T19:58:13.732Z,21.13
2023-05-21T20:00:47.768Z,18.20
2023-05-21T20:03:17.260Z,23.55
2023-05-21T20:05:48.915Z,23.15
2023-05-21T20:10:51.319Z,25.03
2023-05-21T20:13:21.389Z,23.58
2023-05-21T20:15:51.339Z,33.60
2023-05-21T20:18:22.510Z,28.13
2023-05-21T20:20:56.408Z,26.10
2023-05-21T20:23:26.294Z,31.77
2023-05-21T20:25:54.795Z,31.42
2023-05-21T20:28:23.337Z,29.48
2023-05-21T20:30:57.642Z,29.70
2023-05-21T20:33:26.721Z,30.20
2023-05-21T20:35:55.535Z,31.52
2023-05-21T20:38:26.694Z,26.65
2023-05-21T20:40:56.407Z,25.60
2023-05-21T20:43:25.437Z,26.67
2023-05-21T20:45:59.641Z,25.80
2023-05-21T20:48:30.645Z,26.30
2023-05-21T20:50:59.486Z,26.00
2023-05-21T20:53:30.613Z,22.90
2023-05-21T20:56:01.683Z,19.50
2023-05-21T20:58:30.131Z,19.10
2023-05-21T21:00:58.878Z,22.10
2023-05-21T21:03:30.457Z,23.95
2023-05-21T21:06:01.250Z,20.02
2023-05-21T21:08:31.069Z,16.95
2023-05-21T21:10:59.441Z,22.13
2023-05-21T21:13:27.903Z,19.48
2023-05-21T21:15:56.677Z,23.88
2023-05-21T21:18:25.008Z,18.45
2023-05-21T21:20:55.200Z,21.27
2023-05-21T21:23:25.694Z,18.52
2023-05-21T21:25:56.554Z,20.52
2023-05-21T21:28:25.274Z,17.30
2023-05-21T21:30:53.990Z,18.17
2023-05-21T21:33:25.613Z,18.08
2023-05-21T21:35:53.829Z,19.55
2023-05-21T21:38:25.849Z,18.30
2023-05-21T21:40:56.316Z,18.73
2023-05-21T21:43:25.151Z,21.38
2023-05-21T21:45:55.101Z,19.85
2023-05-21T21:48:24.052Z,21.55
2023-05-21T21:50:52.289Z,20.83
2023-05-21T21:53:21.187Z,17.80
2023-05-21T21:55:54.021Z,17.33
2023-05-21T21:58:24.135Z,17.90
2023-05-21T22:00:52.786Z,16.25
2023-05-21T22:03:22.161Z,16.08
2023-05-21T22:05:51.533Z,14.77
2023-05-21T22:08:20.162Z,15.10
2023-05-21T22:10:48.723Z,15.15
2023-05-21T22:13:17.700Z,16.20
2023-05-21T22:15:47.397Z,18.33
2023-05-21T22:18:28.251Z,17.05
2023-05-21T22:21:09.947Z,14.50
2023-05-21T22:23:39.432Z,13.80
2023-05-21T22:26:12.998Z,13.50
2023-05-21T22:28:42.235Z,16.33
2023-05-21T22:31:13.105Z,13.43
2023-05-21T22:33:43.744Z,16.10
2023-05-21T22:36:12.020Z,15.57
2023-05-21T22:38:40.373Z,13.18
2023-05-21T22:41:10.364Z,14.35
2023-05-21T22:43:41.537Z,15.55
2023-05-21T22:46:11.953Z,14.48
2023-05-21T22:48:46.083Z,14.15
2023-05-21T22:51:15.083Z,14.15
2023-05-21T22:53:43.450Z,15.15
2023-05-21T22:56:14.239Z,13.02
2023-05-21T22:58:42.872Z,17.17
2023-05-21T23:01:12.545Z,14.23
2023-05-21T23:03:41.184Z,13.73
2023-05-21T23:06:09.989Z,14.73
2023-05-21T23:08:38.575Z,14.52
2023-05-21T23:11:08.300Z,14.43
2023-05-21T23:13:37.200Z,15.85
2023-05-21T23:16:07.377Z,14.95
2023-05-21T23:18:40.283Z,14.52
2023-05-21T23:21:08.796Z,17.08
2023-05-21T23:23:37.523Z,14.57
2023-05-21T23:26:07.261Z,14.35
2023-05-21T23:28:37.283Z,15.07
2023-05-21T23:31:06.082Z,15.10
2023-05-21T23:33:34.775Z,16.27
2023-05-21T23:36:04.902Z,14.57
2023-05-21T23:38:35.604Z,16.02
2023-05-21T23:41:03.836Z,14.43
2023-05-21T23:43:34.696Z,13.85
2023-05-21T23:46:03.124Z,14.10
2023-05-21T23:48:33.389Z,16.67
2023-05-21T23:51:02.537Z,16.90
2023-05-21T23:53:32.352Z,14.30
2023-05-21T23:56:00.673Z,15.70
2023-05-21T23:58:30.760Z,15.45
